SLE2470 EPKK-LEPA
Flight info
| Callsign | SLE2470 |
|---|---|
| Flight time | 2h 49m |
| Altitude | 39000 |
| Route | N0450F380 TUSIN DCT MIKOV DCT MALUG/N0450F390 DCT LAMPO DCT APRIV DCT GOLAS DCT PIDAD DCT TALEP DCT VAREK DCT ERPIN DCT BALEN UT250 RIXOT |
| Aircraft | A321/M-SDE3FGHIRWY/LB1 |
Departure
| Time | 2026-05-07 04:19 |
|---|---|
| Airport | Kraków John Paul II International Airport (EPKK) |
Arrival
| Time | 2026-05-07 07:09 |
|---|---|
| Airport | Palma de Mallorca Airport (LEPA) |
| Time | Latitude | Longitude | Altitude | Speed | Heading |
|---|---|---|---|---|---|
| 2026-05-07 03:41 | 50.07487 | 19.79677 | 800 ft | 0 kts | 258° |
| 2026-05-07 04:08 | 50.07490 | 19.79698 | 800 ft | 2 kts | 258° |
| 2026-05-07 04:09 | 50.07492 | 19.79732 | 800 ft | 4 kts | 298° |
| 2026-05-07 04:09 | 50.07474 | 19.79756 | 800 ft | 4 kts | 343° |
| 2026-05-07 04:09 | 50.07461 | 19.79761 | 800 ft | 1 kts | 348° |
| 2026-05-07 04:09 | 50.07460 | 19.79762 | 800 ft | 0 kts | 348° |
| 2026-05-07 04:13 | 50.07463 | 19.79760 | 800 ft | 4 kts | 347° |
| 2026-05-07 04:13 | 50.07544 | 19.79732 | 800 ft | 10 kts | 348° |
| 2026-05-07 04:14 | 50.07621 | 19.79707 | 800 ft | 10 kts | 348° |
| 2026-05-07 04:14 | 50.07682 | 19.79718 | 800 ft | 8 kts | 34° |
| 2026-05-07 04:14 | 50.07711 | 19.79837 | 800 ft | 21 kts | 82° |
| 2026-05-07 04:14 | 50.07743 | 19.80103 | 800 ft | 14 kts | 79° |
| 2026-05-07 04:15 | 50.07748 | 19.80140 | 800 ft | 5 kts | 79° |
| 2026-05-07 04:15 | 50.07764 | 19.80272 | 800 ft | 7 kts | 80° |
| 2026-05-07 04:15 | 50.07795 | 19.80341 | 800 ft | 11 kts | 21° |
| 2026-05-07 04:15 | 50.07842 | 19.80343 | 800 ft | 0 kts | 353° |
| 2026-05-07 04:17 | 50.07846 | 19.80342 | 800 ft | 4 kts | 352° |
| 2026-05-07 04:17 | 50.07930 | 19.80317 | 800 ft | 13 kts | 349° |
| 2026-05-07 04:18 | 50.08015 | 19.80281 | 800 ft | 8 kts | 313° |
| 2026-05-07 04:18 | 50.08014 | 19.80220 | 800 ft | 0 kts | 263° |
| 2026-05-07 04:19 | 50.08004 | 19.80134 | 801 ft | 44 kts | 259° |
| 2026-05-07 04:19 | 50.07865 | 19.79103 | 801 ft | 146 kts | 258° |
| 2026-05-07 04:19 | 50.07533 | 19.77191 | 927 ft | 206 kts | 249° |
| 2026-05-07 04:19 | 50.07048 | 19.75147 | 1992 ft | 206 kts | 249° |
| 2026-05-07 04:20 | 50.06512 | 19.72861 | 2376 ft | 249 kts | 248° |
| 2026-05-07 04:20 | 50.05907 | 19.70287 | 2755 ft | 250 kts | 248° |
| 2026-05-07 04:20 | 50.05313 | 19.67761 | 3307 ft | 249 kts | 248° |
| 2026-05-07 04:21 | 50.04122 | 19.62730 | 5959 ft | 251 kts | 248° |
| 2026-05-07 04:21 | 50.03512 | 19.60159 | 7091 ft | 256 kts | 248° |
| 2026-05-07 04:21 | 50.02892 | 19.57541 | 8246 ft | 260 kts | 249° |
| 2026-05-07 04:21 | 50.02356 | 19.54834 | 9433 ft | 265 kts | 256° |
| 2026-05-07 04:22 | 50.02132 | 19.51940 | 10339 ft | 281 kts | 267° |
| 2026-05-07 04:22 | 50.02133 | 19.48785 | 10972 ft | 300 kts | 267° |
| 2026-05-07 04:22 | 50.02131 | 19.45484 | 11902 ft | 309 kts | 267° |
| 2026-05-07 04:22 | 50.02272 | 19.42105 | 12877 ft | 320 kts | 277° |
| 2026-05-07 04:23 | 50.02823 | 19.38710 | 13837 ft | 328 kts | 283° |
| 2026-05-07 04:23 | 50.03383 | 19.35251 | 14505 ft | 332 kts | 278° |
| 2026-05-07 04:23 | 50.03781 | 19.31703 | 14746 ft | 332 kts | 275° |
| 2026-05-07 04:23 | 50.04088 | 19.28150 | 14816 ft | 332 kts | 274° |
| 2026-05-07 04:24 | 50.04370 | 19.24591 | 14823 ft | 331 kts | 274° |
| 2026-05-07 04:24 | 50.04661 | 19.21034 | 14822 ft | 331 kts | 274° |
| 2026-05-07 04:24 | 50.04972 | 19.17486 | 14824 ft | 331 kts | 275° |
| 2026-05-07 04:24 | 50.05302 | 19.13943 | 14827 ft | 331 kts | 275° |
| 2026-05-07 04:25 | 50.05648 | 19.10392 | 14826 ft | 331 kts | 275° |
| 2026-05-07 04:25 | 50.06000 | 19.06855 | 14823 ft | 331 kts | 275° |
| 2026-05-07 04:25 | 50.06353 | 19.03317 | 14826 ft | 331 kts | 275° |
| 2026-05-07 04:25 | 50.06703 | 18.99768 | 14823 ft | 331 kts | 275° |
| 2026-05-07 04:26 | 50.07047 | 18.96229 | 14825 ft | 331 kts | 275° |
| 2026-05-07 04:26 | 50.07386 | 18.92690 | 14826 ft | 331 kts | 275° |
| 2026-05-07 04:26 | 50.07726 | 18.89138 | 14826 ft | 331 kts | 275° |
| 2026-05-07 04:26 | 50.08053 | 18.85597 | 14826 ft | 330 kts | 272° |
| 2026-05-07 04:27 | 50.07930 | 18.82074 | 14826 ft | 325 kts | 255° |
| 2026-05-07 04:27 | 50.07138 | 18.78799 | 14824 ft | 323 kts | 239° |
| 2026-05-07 04:27 | 50.05746 | 18.76027 | 15334 ft | 330 kts | 223° |
| 2026-05-07 04:27 | 50.03915 | 18.73878 | 15726 ft | 329 kts | 211° |
| 2026-05-07 04:28 | 50.01925 | 18.72144 | 15804 ft | 328 kts | 210° |
| 2026-05-07 04:28 | 49.99937 | 18.70451 | 15826 ft | 327 kts | 210° |
| 2026-05-07 04:28 | 49.97944 | 18.68751 | 15823 ft | 327 kts | 210° |
| 2026-05-07 04:28 | 49.95962 | 18.67029 | 15826 ft | 327 kts | 210° |
| 2026-05-07 04:29 | 49.93979 | 18.65287 | 15827 ft | 327 kts | 210° |
| 2026-05-07 04:29 | 49.92003 | 18.63548 | 15823 ft | 327 kts | 210° |
| 2026-05-07 04:29 | 49.89994 | 18.61794 | 16373 ft | 335 kts | 210° |
| 2026-05-07 04:29 | 49.87962 | 18.60037 | 17496 ft | 335 kts | 210° |
| 2026-05-07 04:30 | 49.85928 | 18.58234 | 18440 ft | 338 kts | 214° |
| 2026-05-07 04:30 | 49.84095 | 18.55933 | 19286 ft | 341 kts | 225° |
| 2026-05-07 04:30 | 49.82547 | 18.53126 | 20153 ft | 344 kts | 231° |
| 2026-05-07 04:30 | 49.81031 | 18.50228 | 21032 ft | 347 kts | 231° |
| 2026-05-07 04:31 | 49.79503 | 18.47312 | 21907 ft | 351 kts | 231° |
| 2026-05-07 04:31 | 49.77957 | 18.44373 | 22778 ft | 354 kts | 230° |
| 2026-05-07 04:31 | 49.76391 | 18.41400 | 23599 ft | 358 kts | 230° |
| 2026-05-07 04:31 | 49.74805 | 18.38397 | 24298 ft | 362 kts | 230° |
| 2026-05-07 04:32 | 49.73203 | 18.35367 | 25000 ft | 366 kts | 230° |
| 2026-05-07 04:32 | 49.71586 | 18.32308 | 25697 ft | 369 kts | 230° |
| 2026-05-07 04:32 | 49.69954 | 18.29226 | 26379 ft | 373 kts | 230° |
| 2026-05-07 04:32 | 49.68304 | 18.26118 | 27030 ft | 376 kts | 230° |
| 2026-05-07 04:33 | 49.66632 | 18.22978 | 27685 ft | 380 kts | 230° |
| 2026-05-07 04:33 | 49.64949 | 18.19817 | 28325 ft | 383 kts | 230° |
| 2026-05-07 04:33 | 49.63249 | 18.16621 | 28962 ft | 387 kts | 230° |
| 2026-05-07 04:33 | 49.61534 | 18.13398 | 29590 ft | 390 kts | 230° |
| 2026-05-07 04:34 | 49.59804 | 18.10155 | 30161 ft | 394 kts | 230° |
| 2026-05-07 04:34 | 49.58053 | 18.06879 | 30683 ft | 397 kts | 230° |
| 2026-05-07 04:34 | 49.56296 | 18.03597 | 31357 ft | 396 kts | 230° |
| 2026-05-07 04:34 | 49.54546 | 18.00335 | 32101 ft | 394 kts | 230° |
| 2026-05-07 04:35 | 49.52808 | 17.97096 | 32842 ft | 391 kts | 230° |
| 2026-05-07 04:35 | 49.51078 | 17.93877 | 33584 ft | 389 kts | 230° |
| 2026-05-07 04:35 | 49.49355 | 17.90671 | 34260 ft | 387 kts | 230° |
| 2026-05-07 04:35 | 49.47642 | 17.87487 | 34888 ft | 386 kts | 230° |
| 2026-05-07 04:36 | 49.45937 | 17.84319 | 35503 ft | 384 kts | 230° |
| 2026-05-07 04:36 | 49.44240 | 17.81167 | 36094 ft | 383 kts | 230° |
| 2026-05-07 04:36 | 49.42542 | 17.78021 | 36668 ft | 381 kts | 230° |
| 2026-05-07 04:36 | 49.40847 | 17.74892 | 37220 ft | 380 kts | 230° |
| 2026-05-07 04:37 | 49.39161 | 17.71783 | 37727 ft | 380 kts | 230° |
| 2026-05-07 04:37 | 49.37469 | 17.68663 | 37857 ft | 380 kts | 230° |
| 2026-05-07 04:37 | 49.34095 | 17.62455 | 37870 ft | 378 kts | 230° |
| 2026-05-07 04:38 | 49.30724 | 17.56262 | 37822 ft | 378 kts | 230° |
| 2026-05-07 04:38 | 49.27347 | 17.50073 | 37877 ft | 380 kts | 230° |
| 2026-05-07 04:39 | 49.23931 | 17.43828 | 37879 ft | 384 kts | 230° |
| 2026-05-07 04:39 | 49.20477 | 17.37524 | 37877 ft | 389 kts | 230° |
| 2026-05-07 04:40 | 49.16982 | 17.31160 | 37878 ft | 393 kts | 230° |
| 2026-05-07 04:40 | 49.13438 | 17.24734 | 37882 ft | 396 kts | 230° |
| 2026-05-07 04:41 | 49.09878 | 17.18303 | 37885 ft | 397 kts | 229° |
| 2026-05-07 04:41 | 49.06315 | 17.11863 | 37884 ft | 397 kts | 230° |
| 2026-05-07 04:42 | 49.02758 | 17.05432 | 37887 ft | 397 kts | 230° |
| 2026-05-07 04:42 | 48.99193 | 16.99029 | 37887 ft | 396 kts | 229° |
| 2026-05-07 04:43 | 48.95624 | 16.92638 | 37888 ft | 396 kts | 229° |
| 2026-05-07 04:43 | 48.92058 | 16.86255 | 37890 ft | 396 kts | 229° |
| 2026-05-07 04:44 | 48.88467 | 16.79846 | 37892 ft | 396 kts | 229° |
| 2026-05-07 04:44 | 48.84897 | 16.73489 | 37888 ft | 395 kts | 229° |
| 2026-05-07 04:45 | 48.81323 | 16.67149 | 37900 ft | 395 kts | 229° |
| 2026-05-07 04:45 | 48.77754 | 16.60800 | 37900 ft | 395 kts | 230° |
| 2026-05-07 04:46 | 48.74475 | 16.54173 | 37910 ft | 396 kts | 234° |
| 2026-05-07 04:46 | 48.71300 | 16.47288 | 37914 ft | 396 kts | 234° |
| 2026-05-07 04:47 | 48.68100 | 16.40497 | 37916 ft | 396 kts | 233° |
| 2026-05-07 04:47 | 48.64849 | 16.33775 | 37924 ft | 396 kts | 232° |
| 2026-05-07 04:48 | 48.61581 | 16.27081 | 37926 ft | 396 kts | 232° |
| 2026-05-07 04:48 | 48.58314 | 16.20375 | 37927 ft | 396 kts | 233° |
| 2026-05-07 04:49 | 48.55049 | 16.13667 | 37929 ft | 396 kts | 233° |
| 2026-05-07 04:49 | 48.51781 | 16.06968 | 37930 ft | 397 kts | 232° |
| 2026-05-07 04:50 | 48.48502 | 16.00276 | 37932 ft | 397 kts | 232° |
| 2026-05-07 04:50 | 48.45776 | 15.94723 | 37932 ft | 397 kts | 232° |
| 2026-05-07 04:51 | 48.42486 | 15.88046 | 37935 ft | 397 kts | 232° |
| 2026-05-07 04:51 | 48.39196 | 15.81374 | 37937 ft | 397 kts | 232° |
| 2026-05-07 04:52 | 48.35902 | 15.74702 | 37938 ft | 397 kts | 232° |
| 2026-05-07 04:52 | 48.32590 | 15.68042 | 37941 ft | 398 kts | 232° |
| 2026-05-07 04:53 | 48.29278 | 15.61399 | 37942 ft | 398 kts | 232° |
| 2026-05-07 04:53 | 48.25971 | 15.54742 | 37944 ft | 398 kts | 232° |
| 2026-05-07 04:54 | 48.22659 | 15.48091 | 37950 ft | 398 kts | 232° |
| 2026-05-07 04:54 | 48.19342 | 15.41452 | 37946 ft | 398 kts | 232° |
| 2026-05-07 04:55 | 48.16018 | 15.34837 | 37950 ft | 397 kts | 232° |
| 2026-05-07 04:55 | 48.12691 | 15.28233 | 37950 ft | 397 kts | 232° |
| 2026-05-07 04:56 | 48.09367 | 15.21641 | 37951 ft | 397 kts | 232° |
| 2026-05-07 04:56 | 48.06042 | 15.15069 | 37950 ft | 396 kts | 232° |
| 2026-05-07 04:57 | 48.02724 | 15.08503 | 37953 ft | 396 kts | 232° |
| 2026-05-07 04:57 | 47.99393 | 15.01955 | 37955 ft | 395 kts | 232° |
| 2026-05-07 04:58 | 47.96068 | 14.95442 | 37961 ft | 395 kts | 232° |
| 2026-05-07 04:58 | 47.92743 | 14.88932 | 37957 ft | 394 kts | 232° |
| 2026-05-07 04:59 | 47.89422 | 14.82432 | 37959 ft | 394 kts | 232° |
| 2026-05-07 04:59 | 47.86107 | 14.75955 | 37961 ft | 393 kts | 232° |
| 2026-05-07 05:00 | 47.82803 | 14.69515 | 37963 ft | 392 kts | 232° |
| 2026-05-07 05:00 | 47.79491 | 14.63080 | 37954 ft | 392 kts | 233° |
| 2026-05-07 05:01 | 47.76169 | 14.56658 | 37964 ft | 391 kts | 232° |
| 2026-05-07 05:01 | 47.72852 | 14.50249 | 37975 ft | 391 kts | 232° |
| 2026-05-07 05:02 | 47.69532 | 14.43842 | 37966 ft | 391 kts | 232° |
| 2026-05-07 05:02 | 47.66208 | 14.37447 | 37971 ft | 391 kts | 232° |
| 2026-05-07 05:03 | 47.62877 | 14.31065 | 37966 ft | 391 kts | 232° |
| 2026-05-07 05:03 | 47.59545 | 14.24698 | 37974 ft | 391 kts | 232° |
| 2026-05-07 05:04 | 47.56214 | 14.18333 | 37970 ft | 391 kts | 232° |
| 2026-05-07 05:04 | 47.52874 | 14.11978 | 37975 ft | 391 kts | 232° |
| 2026-05-07 05:05 | 47.49533 | 14.05627 | 37976 ft | 391 kts | 232° |
| 2026-05-07 05:05 | 47.46190 | 13.99281 | 37969 ft | 391 kts | 232° |
| 2026-05-07 05:06 | 47.42839 | 13.92943 | 37974 ft | 391 kts | 232° |
| 2026-05-07 05:06 | 47.39486 | 13.86619 | 37969 ft | 392 kts | 232° |
| 2026-05-07 05:07 | 47.36129 | 13.80295 | 37971 ft | 392 kts | 232° |
| 2026-05-07 05:07 | 47.32764 | 13.73967 | 37976 ft | 392 kts | 231° |
| 2026-05-07 05:08 | 47.29391 | 13.67650 | 38195 ft | 392 kts | 232° |
| 2026-05-07 05:08 | 47.27705 | 13.64498 | 38343 ft | 391 kts | 232° |
| 2026-05-07 05:08 | 47.26023 | 13.61355 | 38493 ft | 391 kts | 232° |
| 2026-05-07 05:09 | 47.24345 | 13.58223 | 38617 ft | 389 kts | 231° |
| 2026-05-07 05:09 | 47.22669 | 13.55099 | 38733 ft | 388 kts | 232° |
| 2026-05-07 05:09 | 47.21002 | 13.51990 | 38886 ft | 385 kts | 231° |
| 2026-05-07 05:09 | 47.19343 | 13.48900 | 38949 ft | 385 kts | 232° |
| 2026-05-07 05:10 | 47.16011 | 13.42715 | 38971 ft | 387 kts | 231° |
| 2026-05-07 05:10 | 47.12656 | 13.36502 | 38971 ft | 389 kts | 231° |
| 2026-05-07 05:11 | 47.09278 | 13.30248 | 38975 ft | 392 kts | 231° |
| 2026-05-07 05:11 | 47.05863 | 13.23949 | 38977 ft | 396 kts | 231° |
| 2026-05-07 05:12 | 47.02415 | 13.17603 | 38975 ft | 399 kts | 231° |
| 2026-05-07 05:12 | 46.98951 | 13.11245 | 38987 ft | 400 kts | 231° |
| 2026-05-07 05:13 | 46.95483 | 13.04882 | 38989 ft | 400 kts | 231° |
| 2026-05-07 05:13 | 46.92002 | 12.98518 | 38996 ft | 400 kts | 231° |
| 2026-05-07 05:14 | 46.88516 | 12.92174 | 38998 ft | 400 kts | 231° |
| 2026-05-07 05:14 | 46.85026 | 12.85840 | 38999 ft | 400 kts | 231° |
| 2026-05-07 05:15 | 46.81543 | 12.79520 | 39005 ft | 400 kts | 231° |
| 2026-05-07 05:15 | 46.78057 | 12.73193 | 39008 ft | 400 kts | 231° |
| 2026-05-07 05:16 | 46.74561 | 12.66873 | 39018 ft | 400 kts | 231° |
| 2026-05-07 05:16 | 46.71060 | 12.60571 | 39025 ft | 401 kts | 231° |
| 2026-05-07 05:17 | 46.67357 | 12.54510 | 39031 ft | 401 kts | 226° |
| 2026-05-07 05:17 | 46.63442 | 12.48737 | 39036 ft | 401 kts | 225° |
| 2026-05-07 05:18 | 46.59526 | 12.42977 | 39033 ft | 400 kts | 226° |
| 2026-05-07 05:18 | 46.55653 | 12.37162 | 39032 ft | 400 kts | 226° |
| 2026-05-07 05:19 | 46.51800 | 12.31345 | 39025 ft | 400 kts | 226° |
| 2026-05-07 05:19 | 46.47934 | 12.25533 | 39021 ft | 400 kts | 226° |
| 2026-05-07 05:20 | 46.44058 | 12.19738 | 39012 ft | 400 kts | 226° |
| 2026-05-07 05:20 | 46.40180 | 12.13957 | 39007 ft | 400 kts | 226° |
| 2026-05-07 05:21 | 46.34363 | 12.05287 | 38996 ft | 400 kts | 226° |
| 2026-05-07 05:22 | 46.30477 | 11.99510 | 38996 ft | 401 kts | 226° |
| 2026-05-07 05:22 | 46.26586 | 11.93741 | 38993 ft | 401 kts | 226° |
| 2026-05-07 05:23 | 46.22696 | 11.87977 | 38988 ft | 401 kts | 226° |
| 2026-05-07 05:23 | 46.18794 | 11.82208 | 38983 ft | 402 kts | 226° |
| 2026-05-07 05:24 | 46.14883 | 11.76450 | 38981 ft | 402 kts | 226° |
| 2026-05-07 05:24 | 46.10960 | 11.70696 | 38982 ft | 402 kts | 226° |
| 2026-05-07 05:25 | 46.06906 | 11.65072 | 38986 ft | 403 kts | 224° |
| 2026-05-07 05:25 | 46.02779 | 11.59690 | 38980 ft | 403 kts | 223° |
| 2026-05-07 05:26 | 45.98618 | 11.54288 | 38978 ft | 403 kts | 223° |
| 2026-05-07 05:26 | 45.94480 | 11.48851 | 38979 ft | 403 kts | 224° |
| 2026-05-07 05:27 | 45.90329 | 11.43380 | 38983 ft | 403 kts | 224° |
| 2026-05-07 05:27 | 45.86194 | 11.37947 | 38981 ft | 403 kts | 224° |
| 2026-05-07 05:28 | 45.82084 | 11.32557 | 38977 ft | 403 kts | 224° |
| 2026-05-07 05:28 | 45.77942 | 11.27137 | 38975 ft | 403 kts | 223° |
| 2026-05-07 05:29 | 45.74474 | 11.22609 | 38962 ft | 403 kts | 223° |
| 2026-05-07 05:29 | 45.70339 | 11.17220 | 38967 ft | 402 kts | 223° |
| 2026-05-07 05:30 | 45.66194 | 11.11832 | 38975 ft | 402 kts | 223° |
| 2026-05-07 05:30 | 45.62056 | 11.06464 | 38980 ft | 402 kts | 223° |
| 2026-05-07 05:31 | 45.57915 | 11.01103 | 38976 ft | 401 kts | 223° |
| 2026-05-07 05:31 | 45.53783 | 10.95751 | 38993 ft | 401 kts | 223° |
| 2026-05-07 05:32 | 45.49640 | 10.90408 | 38990 ft | 401 kts | 223° |
| 2026-05-07 05:32 | 45.45494 | 10.85082 | 38995 ft | 401 kts | 223° |
| 2026-05-07 05:33 | 45.41354 | 10.79755 | 38991 ft | 401 kts | 223° |
| 2026-05-07 05:33 | 45.37206 | 10.74436 | 38994 ft | 401 kts | 223° |
| 2026-05-07 05:34 | 45.33057 | 10.69142 | 38979 ft | 401 kts | 223° |
| 2026-05-07 05:34 | 45.28905 | 10.63851 | 38964 ft | 401 kts | 223° |
| 2026-05-07 05:35 | 45.24763 | 10.58567 | 38955 ft | 400 kts | 223° |
| 2026-05-07 05:35 | 45.20612 | 10.53293 | 38954 ft | 400 kts | 223° |
| 2026-05-07 05:36 | 45.16463 | 10.48032 | 38955 ft | 400 kts | 223° |
| 2026-05-07 05:36 | 45.12317 | 10.42775 | 38949 ft | 400 kts | 223° |
| 2026-05-07 05:37 | 45.08169 | 10.37524 | 38959 ft | 400 kts | 223° |
| 2026-05-07 05:37 | 45.04012 | 10.32279 | 38974 ft | 400 kts | 223° |
| 2026-05-07 05:38 | 44.99848 | 10.27054 | 38979 ft | 400 kts | 223° |
| 2026-05-07 05:38 | 44.95680 | 10.21835 | 38985 ft | 400 kts | 223° |
| 2026-05-07 05:39 | 44.91514 | 10.16610 | 38987 ft | 401 kts | 223° |
| 2026-05-07 05:39 | 44.87340 | 10.11394 | 38990 ft | 401 kts | 223° |
| 2026-05-07 05:40 | 44.83166 | 10.06184 | 38985 ft | 401 kts | 223° |
| 2026-05-07 05:40 | 44.78995 | 10.00978 | 38988 ft | 401 kts | 223° |
| 2026-05-07 05:41 | 44.74816 | 9.95775 | 38982 ft | 401 kts | 223° |
| 2026-05-07 05:41 | 44.70632 | 9.90597 | 38986 ft | 401 kts | 223° |
| 2026-05-07 05:42 | 44.66421 | 9.85451 | 38996 ft | 401 kts | 221° |
| 2026-05-07 05:42 | 44.62093 | 9.80497 | 39004 ft | 401 kts | 220° |
| 2026-05-07 05:43 | 44.57735 | 9.75622 | 39031 ft | 401 kts | 221° |
| 2026-05-07 05:43 | 44.53378 | 9.70708 | 39012 ft | 402 kts | 221° |
| 2026-05-07 05:44 | 44.49019 | 9.65754 | 39005 ft | 403 kts | 221° |
| 2026-05-07 05:44 | 44.44658 | 9.60806 | 39001 ft | 404 kts | 221° |
| 2026-05-07 05:45 | 44.40265 | 9.55889 | 39003 ft | 405 kts | 221° |
| 2026-05-07 05:45 | 44.35857 | 9.51008 | 39003 ft | 405 kts | 220° |
| 2026-05-07 05:46 | 44.31447 | 9.46114 | 39001 ft | 405 kts | 221° |
| 2026-05-07 05:46 | 44.27031 | 9.41227 | 38996 ft | 405 kts | 221° |
| 2026-05-07 05:47 | 44.22624 | 9.36349 | 38991 ft | 405 kts | 221° |
| 2026-05-07 05:47 | 44.18205 | 9.31471 | 38984 ft | 405 kts | 220° |
| 2026-05-07 05:48 | 44.13777 | 9.26608 | 38984 ft | 405 kts | 221° |
| 2026-05-07 05:48 | 44.09319 | 9.21709 | 38976 ft | 406 kts | 221° |
| 2026-05-07 05:49 | 44.04898 | 9.16849 | 38978 ft | 406 kts | 221° |
| 2026-05-07 05:49 | 44.00493 | 9.12019 | 38973 ft | 406 kts | 221° |
| 2026-05-07 05:50 | 43.96052 | 9.07166 | 38977 ft | 406 kts | 221° |
| 2026-05-07 05:50 | 43.91604 | 9.02322 | 38978 ft | 406 kts | 221° |
| 2026-05-07 05:51 | 43.87157 | 8.97475 | 38967 ft | 407 kts | 221° |
| 2026-05-07 05:51 | 43.82683 | 8.92609 | 38973 ft | 407 kts | 221° |
| 2026-05-07 05:52 | 43.78253 | 8.87813 | 38974 ft | 407 kts | 221° |
| 2026-05-07 05:52 | 43.73791 | 8.82989 | 38972 ft | 407 kts | 221° |
| 2026-05-07 05:53 | 43.69303 | 8.78148 | 38971 ft | 407 kts | 221° |
| 2026-05-07 05:53 | 43.64707 | 8.73568 | 38973 ft | 411 kts | 210° |
| 2026-05-07 05:54 | 43.59195 | 8.71297 | 38967 ft | 422 kts | 189° |
| 2026-05-07 05:54 | 43.53277 | 8.71218 | 38960 ft | 426 kts | 185° |
| 2026-05-07 05:54 | 43.50371 | 8.70820 | 38944 ft | 415 kts | 201° |
| 2026-05-07 05:55 | 43.47612 | 8.69685 | 38950 ft | 414 kts | 199° |
| 2026-05-07 05:55 | 43.42014 | 8.67754 | 38962 ft | 416 kts | 199° |
| 2026-05-07 05:56 | 43.36530 | 8.65353 | 38961 ft | 411 kts | 207° |
| 2026-05-07 05:56 | 43.31388 | 8.61966 | 38965 ft | 409 kts | 211° |
| 2026-05-07 05:57 | 43.26319 | 8.58392 | 38970 ft | 410 kts | 211° |
| 2026-05-07 05:57 | 43.21194 | 8.54970 | 38977 ft | 411 kts | 210° |
| 2026-05-07 05:58 | 43.16010 | 8.51664 | 38984 ft | 411 kts | 209° |
| 2026-05-07 05:58 | 43.10823 | 8.48368 | 38988 ft | 411 kts | 209° |
| 2026-05-07 05:59 | 43.05654 | 8.45064 | 38998 ft | 411 kts | 210° |
| 2026-05-07 05:59 | 43.00482 | 8.41748 | 39000 ft | 410 kts | 210° |
| 2026-05-07 06:00 | 42.95308 | 8.38445 | 39005 ft | 410 kts | 210° |
| 2026-05-07 06:00 | 42.90137 | 8.35148 | 39001 ft | 410 kts | 210° |
| 2026-05-07 06:01 | 42.84967 | 8.31859 | 39001 ft | 410 kts | 210° |
| 2026-05-07 06:01 | 42.79809 | 8.28579 | 39005 ft | 409 kts | 210° |
| 2026-05-07 06:02 | 42.74641 | 8.25300 | 39011 ft | 409 kts | 210° |
| 2026-05-07 06:02 | 42.69482 | 8.22039 | 39013 ft | 409 kts | 210° |
| 2026-05-07 06:03 | 42.64318 | 8.18774 | 39009 ft | 409 kts | 210° |
| 2026-05-07 06:03 | 42.59153 | 8.15520 | 39010 ft | 409 kts | 210° |
| 2026-05-07 06:04 | 42.53987 | 8.12278 | 39013 ft | 409 kts | 210° |
| 2026-05-07 06:04 | 42.48829 | 8.09034 | 39016 ft | 408 kts | 210° |
| 2026-05-07 06:05 | 42.43683 | 8.05803 | 39022 ft | 408 kts | 210° |
| 2026-05-07 06:05 | 42.38529 | 8.02578 | 39030 ft | 408 kts | 210° |
| 2026-05-07 06:06 | 42.33383 | 7.99353 | 39028 ft | 407 kts | 210° |
| 2026-05-07 06:06 | 42.28210 | 7.96233 | 39032 ft | 408 kts | 208° |
| 2026-05-07 06:07 | 42.22932 | 7.93361 | 39030 ft | 409 kts | 207° |
| 2026-05-07 06:07 | 42.17645 | 7.90527 | 39029 ft | 408 kts | 207° |
| 2026-05-07 06:08 | 42.13236 | 7.88126 | 39027 ft | 408 kts | 208° |
| 2026-05-07 06:08 | 42.07979 | 7.85243 | 39030 ft | 408 kts | 208° |
| 2026-05-07 06:09 | 42.02762 | 7.82384 | 39028 ft | 407 kts | 208° |
| 2026-05-07 06:09 | 41.97516 | 7.79514 | 39032 ft | 407 kts | 208° |
| 2026-05-07 06:10 | 41.92275 | 7.76653 | 39033 ft | 406 kts | 208° |
| 2026-05-07 06:10 | 41.87036 | 7.73800 | 39031 ft | 406 kts | 208° |
| 2026-05-07 06:11 | 41.81774 | 7.70941 | 39030 ft | 406 kts | 208° |
| 2026-05-07 06:11 | 41.76578 | 7.68122 | 39040 ft | 405 kts | 208° |
| 2026-05-07 06:12 | 41.71352 | 7.65290 | 39043 ft | 405 kts | 208° |
| 2026-05-07 06:12 | 41.66104 | 7.62455 | 39035 ft | 404 kts | 208° |
| 2026-05-07 06:13 | 41.60942 | 7.59519 | 39023 ft | 398 kts | 216° |
| 2026-05-07 06:13 | 41.56841 | 7.54836 | 39021 ft | 384 kts | 236° |
| 2026-05-07 06:14 | 41.54361 | 7.48623 | 39023 ft | 379 kts | 248° |
| 2026-05-07 06:14 | 41.52274 | 7.42149 | 39024 ft | 380 kts | 248° |
| 2026-05-07 06:15 | 41.50178 | 7.35688 | 39026 ft | 380 kts | 248° |
| 2026-05-07 06:15 | 41.48079 | 7.29214 | 39029 ft | 380 kts | 248° |
| 2026-05-07 06:16 | 41.45985 | 7.22737 | 39029 ft | 380 kts | 248° |
| 2026-05-07 06:16 | 41.43881 | 7.16269 | 39027 ft | 380 kts | 248° |
| 2026-05-07 06:17 | 41.41776 | 7.09821 | 39036 ft | 380 kts | 248° |
| 2026-05-07 06:17 | 41.39669 | 7.03366 | 39033 ft | 380 kts | 248° |
| 2026-05-07 06:18 | 41.37562 | 6.96916 | 39033 ft | 380 kts | 248° |
| 2026-05-07 06:18 | 41.35451 | 6.90485 | 39034 ft | 379 kts | 248° |
| 2026-05-07 06:19 | 41.33337 | 6.84051 | 39037 ft | 379 kts | 248° |
| 2026-05-07 06:19 | 41.31219 | 6.77623 | 39037 ft | 379 kts | 248° |
| 2026-05-07 06:20 | 41.29097 | 6.71203 | 39035 ft | 379 kts | 247° |
| 2026-05-07 06:20 | 41.26976 | 6.64785 | 39037 ft | 379 kts | 247° |
| 2026-05-07 06:21 | 41.24851 | 6.58372 | 39038 ft | 379 kts | 247° |
| 2026-05-07 06:21 | 41.22724 | 6.51976 | 39044 ft | 379 kts | 247° |
| 2026-05-07 06:22 | 41.20585 | 6.45574 | 39043 ft | 379 kts | 247° |
| 2026-05-07 06:22 | 41.17374 | 6.36003 | 39039 ft | 378 kts | 247° |
| 2026-05-07 06:23 | 41.15234 | 6.29627 | 39041 ft | 378 kts | 247° |
| 2026-05-07 06:23 | 41.13099 | 6.23258 | 39041 ft | 377 kts | 247° |
| 2026-05-07 06:24 | 41.10962 | 6.16905 | 39038 ft | 377 kts | 247° |
| 2026-05-07 06:24 | 41.08818 | 6.10554 | 39038 ft | 377 kts | 247° |
| 2026-05-07 06:25 | 41.06672 | 6.04217 | 39035 ft | 377 kts | 247° |
| 2026-05-07 06:25 | 41.04518 | 5.97885 | 39038 ft | 377 kts | 247° |
| 2026-05-07 06:26 | 41.02365 | 5.91560 | 39039 ft | 376 kts | 246° |
| 2026-05-07 06:26 | 41.00218 | 5.85244 | 39043 ft | 376 kts | 246° |
| 2026-05-07 06:27 | 40.98068 | 5.78934 | 39038 ft | 376 kts | 246° |
| 2026-05-07 06:27 | 40.95903 | 5.72635 | 39041 ft | 376 kts | 246° |
| 2026-05-07 06:28 | 40.93384 | 5.66596 | 39037 ft | 377 kts | 237° |
| 2026-05-07 06:28 | 40.91867 | 5.63770 | 38766 ft | 377 kts | 237° |
| 2026-05-07 06:28 | 40.90336 | 5.60913 | 37173 ft | 385 kts | 237° |
| 2026-05-07 06:29 | 40.88784 | 5.58013 | 36094 ft | 383 kts | 237° |
| 2026-05-07 06:29 | 40.87290 | 5.55234 | 35845 ft | 361 kts | 237° |
| 2026-05-07 06:29 | 40.85843 | 5.52546 | 34948 ft | 357 kts | 237° |
| 2026-05-07 06:29 | 40.84414 | 5.49893 | 34094 ft | 352 kts | 237° |
| 2026-05-07 06:30 | 40.83007 | 5.47272 | 33189 ft | 347 kts | 237° |
| 2026-05-07 06:30 | 40.81647 | 5.44736 | 32832 ft | 331 kts | 237° |
| 2026-05-07 06:30 | 40.80317 | 5.42260 | 32546 ft | 333 kts | 237° |
| 2026-05-07 06:30 | 40.78976 | 5.39756 | 32286 ft | 334 kts | 237° |
| 2026-05-07 06:31 | 40.77634 | 5.37261 | 32021 ft | 333 kts | 237° |
| 2026-05-07 06:31 | 40.76290 | 5.34774 | 31765 ft | 332 kts | 237° |
| 2026-05-07 06:31 | 40.74952 | 5.32298 | 31510 ft | 331 kts | 237° |
| 2026-05-07 06:31 | 40.73617 | 5.29829 | 31259 ft | 330 kts | 237° |
| 2026-05-07 06:32 | 40.72285 | 5.27374 | 31008 ft | 328 kts | 237° |
| 2026-05-07 06:32 | 40.70960 | 5.24930 | 30764 ft | 327 kts | 236° |
| 2026-05-07 06:32 | 40.69638 | 5.22493 | 30519 ft | 326 kts | 236° |
| 2026-05-07 06:32 | 40.68321 | 5.20067 | 30276 ft | 325 kts | 236° |
| 2026-05-07 06:33 | 40.67011 | 5.17655 | 30023 ft | 324 kts | 236° |
| 2026-05-07 06:33 | 40.65705 | 5.15249 | 29745 ft | 323 kts | 236° |
| 2026-05-07 06:33 | 40.64400 | 5.12841 | 29460 ft | 322 kts | 236° |
| 2026-05-07 06:33 | 40.63105 | 5.10445 | 29188 ft | 321 kts | 236° |
| 2026-05-07 06:34 | 40.61805 | 5.08049 | 28899 ft | 320 kts | 236° |
| 2026-05-07 06:34 | 40.60510 | 5.05670 | 28626 ft | 320 kts | 236° |
| 2026-05-07 06:34 | 40.59216 | 5.03297 | 28345 ft | 319 kts | 236° |
| 2026-05-07 06:34 | 40.57920 | 5.00931 | 28136 ft | 318 kts | 236° |
| 2026-05-07 06:35 | 40.56629 | 4.98572 | 27828 ft | 318 kts | 236° |
| 2026-05-07 06:35 | 40.55342 | 4.96219 | 27502 ft | 316 kts | 236° |
| 2026-05-07 06:35 | 40.54059 | 4.93869 | 27177 ft | 315 kts | 236° |
| 2026-05-07 06:35 | 40.52783 | 4.91532 | 26850 ft | 315 kts | 236° |
| 2026-05-07 06:36 | 40.51511 | 4.89205 | 26536 ft | 310 kts | 236° |
| 2026-05-07 06:36 | 40.50278 | 4.86959 | 26074 ft | 297 kts | 236° |
| 2026-05-07 06:36 | 40.49089 | 4.84797 | 25891 ft | 294 kts | 236° |
| 2026-05-07 06:36 | 40.47888 | 4.82610 | 25591 ft | 296 kts | 236° |
| 2026-05-07 06:37 | 40.46683 | 4.80418 | 25281 ft | 296 kts | 236° |
| 2026-05-07 06:37 | 40.45478 | 4.78232 | 24955 ft | 296 kts | 236° |
| 2026-05-07 06:37 | 40.44274 | 4.76043 | 24594 ft | 295 kts | 237° |
| 2026-05-07 06:37 | 40.43076 | 4.73864 | 24232 ft | 294 kts | 236° |
| 2026-05-07 06:38 | 40.41876 | 4.71682 | 23872 ft | 294 kts | 236° |
| 2026-05-07 06:38 | 40.40683 | 4.69517 | 23480 ft | 293 kts | 236° |
| 2026-05-07 06:38 | 40.39489 | 4.67352 | 23088 ft | 292 kts | 236° |
| 2026-05-07 06:38 | 40.38302 | 4.65198 | 22815 ft | 291 kts | 236° |
| 2026-05-07 06:39 | 40.37118 | 4.63047 | 22608 ft | 291 kts | 236° |
| 2026-05-07 06:39 | 40.35930 | 4.60892 | 22386 ft | 291 kts | 236° |
| 2026-05-07 06:39 | 40.34743 | 4.58748 | 22168 ft | 291 kts | 236° |
| 2026-05-07 06:39 | 40.33555 | 4.56607 | 21943 ft | 290 kts | 236° |
| 2026-05-07 06:40 | 40.32369 | 4.54468 | 21729 ft | 290 kts | 236° |
| 2026-05-07 06:40 | 40.31185 | 4.52332 | 21498 ft | 289 kts | 236° |
| 2026-05-07 06:40 | 40.30002 | 4.50202 | 21277 ft | 289 kts | 235° |
| 2026-05-07 06:40 | 40.28841 | 4.48118 | 20914 ft | 278 kts | 235° |
| 2026-05-07 06:41 | 40.27725 | 4.46110 | 20637 ft | 273 kts | 235° |
| 2026-05-07 06:41 | 40.26604 | 4.44086 | 20390 ft | 275 kts | 235° |
| 2026-05-07 06:41 | 40.25482 | 4.42062 | 20139 ft | 275 kts | 235° |
| 2026-05-07 06:41 | 40.24360 | 4.40035 | 19893 ft | 275 kts | 235° |
| 2026-05-07 06:42 | 40.23235 | 4.38009 | 19652 ft | 275 kts | 234° |
| 2026-05-07 06:42 | 40.22109 | 4.35987 | 19406 ft | 275 kts | 234° |
| 2026-05-07 06:42 | 40.20980 | 4.33965 | 19161 ft | 275 kts | 234° |
| 2026-05-07 06:42 | 40.19852 | 4.31943 | 18931 ft | 275 kts | 234° |
| 2026-05-07 06:43 | 40.18722 | 4.29922 | 18691 ft | 275 kts | 234° |
| 2026-05-07 06:43 | 40.17593 | 4.27903 | 18457 ft | 275 kts | 234° |
| 2026-05-07 06:43 | 40.16461 | 4.25886 | 18213 ft | 275 kts | 234° |
| 2026-05-07 06:43 | 40.15330 | 4.23871 | 17944 ft | 275 kts | 234° |
| 2026-05-07 06:44 | 40.14206 | 4.21861 | 17675 ft | 273 kts | 234° |
| 2026-05-07 06:44 | 40.13085 | 4.19856 | 17405 ft | 272 kts | 234° |
| 2026-05-07 06:44 | 40.11970 | 4.17862 | 17148 ft | 271 kts | 234° |
| 2026-05-07 06:44 | 40.10858 | 4.15879 | 16883 ft | 270 kts | 234° |
| 2026-05-07 06:45 | 40.09750 | 4.13908 | 16627 ft | 269 kts | 234° |
| 2026-05-07 06:45 | 40.08646 | 4.11944 | 16370 ft | 268 kts | 234° |
| 2026-05-07 06:45 | 40.07547 | 4.09989 | 16122 ft | 267 kts | 234° |
| 2026-05-07 06:45 | 40.06451 | 4.08044 | 15865 ft | 265 kts | 234° |
| 2026-05-07 06:46 | 40.05715 | 4.06734 | 15699 ft | 264 kts | 234° |
| 2026-05-07 06:46 | 40.04630 | 4.04800 | 15446 ft | 263 kts | 234° |
| 2026-05-07 06:46 | 40.03553 | 4.02875 | 15194 ft | 262 kts | 234° |
| 2026-05-07 06:46 | 40.02478 | 4.00963 | 14944 ft | 261 kts | 234° |
| 2026-05-07 06:47 | 40.01419 | 3.99089 | 14721 ft | 260 kts | 234° |
| 2026-05-07 06:47 | 40.00335 | 3.97175 | 14472 ft | 259 kts | 234° |
| 2026-05-07 06:47 | 39.99269 | 3.95285 | 14226 ft | 258 kts | 234° |
| 2026-05-07 06:47 | 39.98211 | 3.93407 | 13988 ft | 256 kts | 234° |
| 2026-05-07 06:48 | 39.97157 | 3.91539 | 13750 ft | 255 kts | 233° |
| 2026-05-07 06:48 | 39.96107 | 3.89680 | 13479 ft | 254 kts | 234° |
| 2026-05-07 06:48 | 39.95061 | 3.87828 | 13214 ft | 254 kts | 233° |
| 2026-05-07 06:48 | 39.94017 | 3.85979 | 12955 ft | 253 kts | 233° |
| 2026-05-07 06:49 | 39.92973 | 3.84133 | 12695 ft | 253 kts | 233° |
| 2026-05-07 06:49 | 39.91931 | 3.82295 | 12432 ft | 252 kts | 233° |
| 2026-05-07 06:49 | 39.90891 | 3.80461 | 12173 ft | 252 kts | 233° |
| 2026-05-07 06:49 | 39.89849 | 3.78629 | 11921 ft | 251 kts | 233° |
| 2026-05-07 06:50 | 39.88809 | 3.76798 | 11663 ft | 251 kts | 233° |
| 2026-05-07 06:50 | 39.87769 | 3.74973 | 11402 ft | 251 kts | 233° |
| 2026-05-07 06:50 | 39.86733 | 3.73151 | 11181 ft | 250 kts | 233° |
| 2026-05-07 06:50 | 39.85699 | 3.71327 | 10925 ft | 250 kts | 233° |
| 2026-05-07 06:51 | 39.84670 | 3.69514 | 10674 ft | 250 kts | 233° |
| 2026-05-07 06:51 | 39.83649 | 3.67720 | 10436 ft | 249 kts | 232° |
| 2026-05-07 06:51 | 39.82605 | 3.65889 | 10191 ft | 249 kts | 232° |
| 2026-05-07 06:51 | 39.81576 | 3.64084 | 9952 ft | 248 kts | 232° |
| 2026-05-07 06:52 | 39.80546 | 3.62276 | 9824 ft | 249 kts | 232° |
| 2026-05-07 06:52 | 39.79515 | 3.60468 | 9687 ft | 249 kts | 232° |
| 2026-05-07 06:52 | 39.78484 | 3.58663 | 9558 ft | 249 kts | 232° |
| 2026-05-07 06:52 | 39.77450 | 3.56853 | 9423 ft | 250 kts | 232° |
| 2026-05-07 06:53 | 39.76414 | 3.55039 | 9291 ft | 250 kts | 232° |
| 2026-05-07 06:53 | 39.75377 | 3.53229 | 9154 ft | 250 kts | 231° |
| 2026-05-07 06:53 | 39.74340 | 3.51418 | 9031 ft | 250 kts | 232° |
| 2026-05-07 06:53 | 39.73301 | 3.49608 | 8890 ft | 250 kts | 232° |
| 2026-05-07 06:54 | 39.72262 | 3.47796 | 8770 ft | 250 kts | 231° |
| 2026-05-07 06:54 | 39.71223 | 3.45984 | 8644 ft | 250 kts | 232° |
| 2026-05-07 06:54 | 39.70185 | 3.44171 | 8510 ft | 250 kts | 232° |
| 2026-05-07 06:54 | 39.69311 | 3.42269 | 8376 ft | 239 kts | 242° |
| 2026-05-07 06:55 | 39.68603 | 3.40390 | 8275 ft | 224 kts | 242° |
| 2026-05-07 06:55 | 39.67921 | 3.38608 | 8138 ft | 219 kts | 242° |
| 2026-05-07 06:55 | 39.67241 | 3.36843 | 8048 ft | 218 kts | 242° |
| 2026-05-07 06:55 | 39.66564 | 3.35084 | 7981 ft | 217 kts | 241° |
| 2026-05-07 06:56 | 39.65886 | 3.33323 | 7991 ft | 218 kts | 242° |
| 2026-05-07 06:56 | 39.65206 | 3.31564 | 7995 ft | 218 kts | 241° |
| 2026-05-07 06:56 | 39.64524 | 3.29804 | 8004 ft | 219 kts | 241° |
| 2026-05-07 06:56 | 39.63842 | 3.28041 | 7990 ft | 218 kts | 242° |
| 2026-05-07 06:57 | 39.63162 | 3.26283 | 7989 ft | 218 kts | 242° |
| 2026-05-07 06:57 | 39.62479 | 3.24523 | 7991 ft | 218 kts | 242° |
| 2026-05-07 06:57 | 39.61796 | 3.22765 | 8000 ft | 218 kts | 242° |
| 2026-05-07 06:57 | 39.61115 | 3.21003 | 8006 ft | 218 kts | 242° |
| 2026-05-07 06:58 | 39.60433 | 3.19244 | 7988 ft | 218 kts | 242° |
| 2026-05-07 06:58 | 39.59753 | 3.17484 | 7988 ft | 218 kts | 242° |
| 2026-05-07 06:58 | 39.59076 | 3.15729 | 7995 ft | 218 kts | 242° |
| 2026-05-07 06:58 | 39.58588 | 3.14464 | 7988 ft | 218 kts | 242° |
| 2026-05-07 06:59 | 39.57908 | 3.12705 | 7867 ft | 218 kts | 242° |
| 2026-05-07 06:59 | 39.57226 | 3.10946 | 7748 ft | 218 kts | 242° |
| 2026-05-07 06:59 | 39.56546 | 3.09193 | 7621 ft | 218 kts | 242° |
| 2026-05-07 06:59 | 39.55864 | 3.07440 | 7493 ft | 216 kts | 242° |
| 2026-05-07 07:00 | 39.55201 | 3.05738 | 7388 ft | 208 kts | 242° |
| 2026-05-07 07:00 | 39.54551 | 3.04071 | 7279 ft | 207 kts | 242° |
| 2026-05-07 07:00 | 39.53905 | 3.02413 | 7154 ft | 206 kts | 242° |
| 2026-05-07 07:00 | 39.53262 | 3.00756 | 7017 ft | 206 kts | 242° |
| 2026-05-07 07:01 | 39.52618 | 2.99098 | 6894 ft | 206 kts | 242° |
| 2026-05-07 07:01 | 39.51972 | 2.97438 | 6763 ft | 206 kts | 242° |
| 2026-05-07 07:01 | 39.51326 | 2.95782 | 6650 ft | 206 kts | 242° |
| 2026-05-07 07:01 | 39.50679 | 2.94123 | 6537 ft | 206 kts | 242° |
| 2026-05-07 07:02 | 39.50031 | 2.92464 | 6409 ft | 206 kts | 242° |
| 2026-05-07 07:02 | 39.49381 | 2.90803 | 6313 ft | 206 kts | 242° |
| 2026-05-07 07:02 | 39.48734 | 2.89149 | 6186 ft | 206 kts | 242° |
| 2026-05-07 07:02 | 39.48087 | 2.87495 | 6056 ft | 206 kts | 242° |
| 2026-05-07 07:03 | 39.47438 | 2.85835 | 5924 ft | 206 kts | 242° |
| 2026-05-07 07:03 | 39.46790 | 2.84179 | 5798 ft | 206 kts | 242° |
| 2026-05-07 07:03 | 39.46145 | 2.82531 | 5670 ft | 206 kts | 242° |
| 2026-05-07 07:03 | 39.45497 | 2.80880 | 5483 ft | 205 kts | 242° |
| 2026-05-07 07:04 | 39.44851 | 2.79237 | 5251 ft | 204 kts | 242° |
| 2026-05-07 07:04 | 39.44254 | 2.77568 | 5006 ft | 204 kts | 249° |
| 2026-05-07 07:04 | 39.43919 | 2.75785 | 4760 ft | 205 kts | 262° |
| 2026-05-07 07:04 | 39.43869 | 2.73947 | 4364 ft | 203 kts | 274° |
| 2026-05-07 07:05 | 39.44094 | 2.72153 | 3955 ft | 202 kts | 283° |
| 2026-05-07 07:05 | 39.44379 | 2.70381 | 3584 ft | 200 kts | 283° |
| 2026-05-07 07:05 | 39.44705 | 2.68635 | 3485 ft | 200 kts | 291° |
| 2026-05-07 07:05 | 39.45369 | 2.67076 | 3373 ft | 198 kts | 309° |
| 2026-05-07 07:06 | 39.46349 | 2.65848 | 3196 ft | 196 kts | 326° |
| 2026-05-07 07:06 | 39.47519 | 2.65059 | 2740 ft | 183 kts | 344° |
| 2026-05-07 07:06 | 39.48697 | 2.64747 | 2320 ft | 164 kts | 0° |
| 2026-05-07 07:06 | 39.49775 | 2.64811 | 2271 ft | 151 kts | 13° |
| 2026-05-07 07:07 | 39.50768 | 2.65167 | 2274 ft | 146 kts | 26° |
| 2026-05-07 07:07 | 39.51650 | 2.65775 | 2242 ft | 140 kts | 37° |
| 2026-05-07 07:07 | 39.52458 | 2.66495 | 1788 ft | 142 kts | 40° |
| 2026-05-07 07:07 | 39.53191 | 2.67410 | 1092 ft | 153 kts | 52° |
| 2026-05-07 07:08 | 39.53806 | 2.68590 | 373 ft | 160 kts | 63° |
| 2026-05-07 07:08 | 39.54181 | 2.69839 | 162 ft | 139 kts | 64° |
| 2026-05-07 07:08 | 39.54627 | 2.70827 | 58 ft | 120 kts | 60° |
| 2026-05-07 07:08 | 39.55012 | 2.71662 | 38 ft | 94 kts | 59° |
| 2026-05-07 07:09 | 39.55177 | 2.72022 | 37 ft | 33 kts | 59° |
| 2026-05-07 07:09 | 39.55282 | 2.72255 | 38 ft | 24 kts | 63° |
| 2026-05-07 07:09 | 39.55264 | 2.72368 | 38 ft | 10 kts | 142° |
| 2026-05-07 07:09 | 39.55218 | 2.72392 | 38 ft | 0 kts | 161° |
| 2026-05-07 07:12 | 39.55205 | 2.72398 | 38 ft | 5 kts | 155° |
| 2026-05-07 07:12 | 39.55170 | 2.72432 | 38 ft | 8 kts | 136° |
| 2026-05-07 07:12 | 39.55105 | 2.72503 | 38 ft | 13 kts | 145° |
| 2026-05-07 07:12 | 39.55083 | 2.72522 | 38 ft | 5 kts | 149° |
| 2026-05-07 07:13 | 39.55052 | 2.72579 | 38 ft | 11 kts | 93° |
| 2026-05-07 07:13 | 39.55092 | 2.72703 | 38 ft | 19 kts | 58° |
| 2026-05-07 07:13 | 39.55172 | 2.72869 | 38 ft | 23 kts | 58° |
| 2026-05-07 07:13 | 39.55256 | 2.73048 | 38 ft | 24 kts | 57° |
| 2026-05-07 07:14 | 39.55342 | 2.73228 | 38 ft | 24 kts | 59° |
| 2026-05-07 07:14 | 39.55426 | 2.73413 | 38 ft | 24 kts | 59° |
| 2026-05-07 07:14 | 39.55490 | 2.73541 | 38 ft | 12 kts | 60° |
| 2026-05-07 07:14 | 39.55460 | 2.73625 | 38 ft | 12 kts | 143° |
| 2026-05-07 07:15 | 39.55386 | 2.73682 | 38 ft | 13 kts | 152° |
| 2026-05-07 07:15 | 39.55329 | 2.73723 | 38 ft | 0 kts | 146° |
| 2026-05-07 07:15 | 39.55327 | 2.73725 | 38 ft | 0 kts | 146° |
| 2026-05-07 07:15 | 39.55288 | 2.73760 | 38 ft | 13 kts | 146° |
| 2026-05-07 07:16 | 39.55215 | 2.73816 | 38 ft | 12 kts | 162° |
| 2026-05-07 07:16 | 39.55120 | 2.73795 | 38 ft | 16 kts | 167° |
| 2026-05-07 07:16 | 39.54996 | 2.73882 | 38 ft | 14 kts | 142° |
| 2026-05-07 07:16 | 39.54948 | 2.73927 | 38 ft | 8 kts | 147° |
| 2026-05-07 07:17 | 39.54887 | 2.73971 | 38 ft | 8 kts | 153° |
| 2026-05-07 07:17 | 39.54860 | 2.73939 | 38 ft | 9 kts | 249° |
| 2026-05-07 07:17 | 39.54853 | 2.73885 | 38 ft | 3 kts | 266° |
| 2026-05-07 07:17 | 39.54852 | 2.73863 | 38 ft | 3 kts | 266° |
| 2026-05-07 07:18 | 39.54851 | 2.73842 | 38 ft | 0 kts | 268° |